Time;durP1;ratioP1;P1;durP2;ratioP2;P2;SDS_P1;SDS_P2;PMS_P1;PMS_P2;Temp;Humidity;BMP_temperature;BMP_pressure;BME280_temperature;BME280_humidity;BME280_pressure;Samples;Min_cycle;Max_cycle;Signal;HPM_P1;HPM_P2
2020/12/05 00:00:21;;;;;;;13.07;3.87;;;4.00;99.90;;;;;;4086518;29;20203;-93
2020/12/05 00:02:22;;;;;;;7.03;3.20;;;4.10;99.90;;;;;;4071014;29;20264;-92
2020/12/05 00:04:23;;;;;;;10.07;3.30;;;4.00;99.90;;;;;;4086319;29;20313;-92
2020/12/05 00:06:23;;;;;;;8.00;2.90;;;4.00;99.90;;;;;;4086836;29;20168;-93
2020/12/05 00:08:24;;;;;;;11.30;3.73;;;3.90;99.90;;;;;;4070996;29;20177;-92
2020/12/05 00:10:26;;;;;;;10.80;3.60;;;3.90;99.90;;;;;;4087188;29;20231;-92
2020/12/05 00:12:26;;;;;;;13.07;3.40;;;3.80;99.90;;;;;;4086419;29;20220;-94
2020/12/05 00:14:27;;;;;;;9.23;3.30;;;3.60;99.90;;;;;;4070471;29;20787;-93
2020/12/05 00:16:28;;;;;;;9.57;3.30;;;3.50;99.90;;;;;;4086369;29;20254;-94
2020/12/05 00:18:29;;;;;;;10.00;3.43;;;3.50;99.90;;;;;;4070666;29;20259;-93
2020/12/05 00:20:29;;;;;;;12.40;3.30;;;3.60;99.90;;;;;;4086229;29;20204;-93
2020/12/05 00:22:33;;;;;;;9.10;3.10;;;3.60;99.90;;;;;;4086491;29;20631;-94
2020/12/05 00:24:34;;;;;;;10.03;3.67;;;3.60;99.90;;;;;;4086350;29;20570;-93
2020/12/05 00:26:35;;;;;;;14.17;4.10;;;3.50;99.90;;;;;;4070899;29;20176;-94
2020/12/05 00:28:35;;;;;;;12.13;3.20;;;3.50;99.90;;;;;;4102072;29;20179;-93
2020/12/05 00:30:36;;;;;;;8.20;3.20;;;3.50;99.90;;;;;;4070527;29;20236;-94
2020/12/05 00:32:37;;;;;;;10.70;3.03;;;3.50;99.90;;;;;;4070572;29;20240;-94
2020/12/05 00:34:38;;;;;;;8.47;3.40;;;3.40;99.90;;;;;;4071034;29;20292;-93
2020/12/05 00:36:39;;;;;;;10.77;3.27;;;3.40;99.90;;;;;;4070344;29;20727;-92
2020/12/05 00:38:39;;;;;;;14.30;4.17;;;3.40;99.90;;;;;;4086005;29;20172;-94
2020/12/05 00:40:40;;;;;;;10.37;4.23;;;3.40;99.90;;;;;;4070666;29;20192;-93
2020/12/05 00:42:41;;;;;;;7.93;3.37;;;3.40;99.90;;;;;;4070255;29;20183;-94
2020/12/05 00:44:43;;;;;;;9.37;3.70;;;3.30;99.90;;;;;;4070238;29;20647;-93
2020/12/05 00:46:46;;;;;;;11.63;3.47;;;3.20;99.90;;;;;;4086126;29;20172;-94
2020/12/05 00:48:46;;;;;;;12.17;3.97;;;3.30;99.90;;;;;;4070128;29;20180;-93
2020/12/05 00:50:47;;;;;;;8.80;3.53;;;3.30;99.90;;;;;;4070164;29;20204;-92
2020/12/05 00:52:48;;;;;;;10.50;3.60;;;3.40;99.90;;;;;;4070156;29;20199;-95
2020/12/05 00:54:50;;;;;;;8.37;3.30;;;3.60;99.90;;;;;;4085732;29;20604;-93
2020/12/05 00:56:52;;;;;;;11.87;3.70;;;3.70;99.90;;;;;;4070782;29;20208;-93
2020/12/05 00:58:53;;;;;;;7.97;3.07;;;3.80;99.90;;;;;;4070098;29;20180;-93
2020/12/05 01:00:53;;;;;;;12.50;3.73;;;3.70;99.90;;;;;;4069920;29;20544;-93
2020/12/05 01:02:54;;;;;;;8.90;3.90;;;3.80;99.90;;;;;;4070047;29;20187;-95
2020/12/05 01:04:55;;;;;;;13.43;3.77;;;3.80;99.90;;;;;;4070271;29;20211;-94
2020/12/05 01:06:56;;;;;;;12.60;4.00;;;3.70;99.90;;;;;;4070059;29;20180;-93
2020/12/05 01:08:56;;;;;;;10.57;3.83;;;3.60;99.90;;;;;;4069848;29;20180;-94
2020/12/05 01:10:57;;;;;;;9.53;4.03;;;3.60;99.90;;;;;;4069671;29;20207;-94
2020/12/05 01:13:01;;;;;;;14.03;4.20;;;3.70;99.90;;;;;;4085444;29;20663;-94
2020/12/05 01:15:04;;;;;;;13.67;4.63;;;3.80;99.90;;;;;;4085498;29;20195;-94
2020/12/05 01:17:05;;;;;;;15.20;3.80;;;3.90;99.90;;;;;;4085435;29;20175;-92
2020/12/05 01:19:06;;;;;;;10.27;4.00;;;3.90;99.90;;;;;;4085568;29;20267;-92
2020/12/05 01:21:11;;;;;;;8.27;3.27;;;3.90;99.90;;;;;;4069588;29;20184;-93
2020/12/05 01:23:11;;;;;;;9.00;3.40;;;3.80;99.90;;;;;;4070008;29;20180;-93
2020/12/05 01:25:12;;;;;;;10.53;3.10;;;3.70;99.90;;;;;;4085375;29;20214;-93
2020/12/05 01:27:13;;;;;;;9.33;2.90;;;3.70;99.90;;;;;;4069635;29;20181;-93
2020/12/05 01:29:13;;;;;;;7.07;2.93;;;3.80;99.90;;;;;;4085329;29;20210;-94
2020/12/05 01:31:14;;;;;;;11.93;2.97;;;4.00;99.90;;;;;;4085193;29;20675;-93
2020/12/05 01:33:15;;;;;;;8.97;3.17;;;4.10;99.90;;;;;;4085203;29;20183;-93
2020/12/05 01:35:16;;;;;;;6.93;2.83;;;4.20;99.90;;;;;;4085187;29;20180;-91
2020/12/05 01:37:16;;;;;;;6.50;2.77;;;4.30;99.90;;;;;;4069517;29;20208;-93
2020/12/05 01:39:18;;;;;;;10.50;2.97;;;4.50;99.90;;;;;;4069544;29;20608;-95
2020/12/05 01:41:18;;;;;;;6.57;2.37;;;4.60;99.90;;;;;;4069455;29;20673;-93
2020/12/05 01:43:20;;;;;;;11.23;2.73;;;4.70;99.90;;;;;;4069655;29;20204;-93
2020/12/05 01:45:21;;;;;;;6.93;2.93;;;4.90;99.90;;;;;;4084659;29;20207;-94
2020/12/05 01:47:24;;;;;;;11.00;2.67;;;4.80;99.90;;;;;;4069499;29;20697;-93
2020/12/05 01:49:27;;;;;;;7.60;2.60;;;4.60;99.90;;;;;;4069456;29;20196;-93
2020/12/05 01:51:30;;;;;;;5.70;2.57;;;4.60;99.90;;;;;;4084998;29;20246;-94
2020/12/05 01:53:30;;;;;;;9.17;3.03;;;4.50;99.90;;;;;;4069260;29;20204;-92
2020/12/05 01:55:31;;;;;;;7.73;2.43;;;4.50;99.90;;;;;;4084802;29;20180;-94
2020/12/05 01:57:32;;;;;;;6.30;2.43;;;4.40;99.90;;;;;;4084853;29;20179;-93
2020/12/05 01:59:33;;;;;;;10.47;2.60;;;4.40;99.90;;;;;;4084852;29;20755;-93
2020/12/05 02:01:34;;;;;;;5.90;2.10;;;4.30;99.90;;;;;;4069495;29;20172;-94
2020/12/05 02:03:35;;;;;;;7.73;2.13;;;4.10;99.90;;;;;;4084814;29;20180;-94
2020/12/05 02:05:59;;;;;;;11.23;2.53;;;4.00;99.90;;;;;;4069101;29;20327;-94
2020/12/05 02:08:18;;;;;;;6.47;2.10;;;4.00;99.90;;;;;;4069200;29;20184;-93
2020/12/05 02:10:25;;;;;;;8.10;2.30;;;4.00;99.90;;;;;;4084727;29;20203;-93
2020/12/05 02:12:44;;;;;;;7.40;2.53;;;4.10;99.90;;;;;;4085279;29;20274;-95
2020/12/05 02:14:48;;;;;;;7.73;2.50;;;4.10;99.90;;;;;;4069421;29;20188;-92
2020/12/05 02:16:51;;;;;;;6.97;2.40;;;4.10;99.90;;;;;;4100495;29;20179;-92
2020/12/05 02:18:54;;;;;;;8.73;2.70;;;4.20;99.90;;;;;;4084645;29;20179;-93
2020/12/05 02:21:00;;;;;;;6.23;2.57;;;4.40;99.90;;;;;;4068882;29;20176;-93
2020/12/05 02:23:14;;;;;;;7.83;2.67;;;4.60;99.90;;;;;;4068996;29;20176;-94
2020/12/05 02:25:15;;;;;;;7.00;1.93;;;4.90;99.90;;;;;;4068728;29;20216;-92
2020/12/05 02:27:16;;;;;;;6.40;2.47;;;5.10;99.90;;;;;;4084575;29;20201;-93
2020/12/05 02:29:19;;;;;;;8.27;1.93;;;5.30;99.90;;;;;;4068627;29;20204;-93
2020/12/05 02:31:19;;;;;;;7.00;2.43;;;5.40;99.90;;;;;;4084485;29;20259;-94
2020/12/05 02:33:21;;;;;;;4.23;1.90;;;5.40;99.90;;;;;;4068898;29;20624;-94
2020/12/05 02:35:21;;;;;;;7.47;2.63;;;5.30;99.90;;;;;;4069079;29;20176;-93
2020/12/05 02:37:27;;;;;;;4.70;2.30;;;5.40;99.90;;;;;;4084425;29;20185;-93
2020/12/05 02:39:29;;;;;;;7.60;2.27;;;5.60;99.90;;;;;;4068712;29;20192;-92
2020/12/05 02:41:35;;;;;;;10.07;2.30;;;5.60;99.90;;;;;;4100242;29;20179;-92
2020/12/05 02:43:36;;;;;;;10.27;2.40;;;5.60;99.90;;;;;;4084642;29;20536;-92
2020/12/05 02:45:39;;;;;;;7.40;2.13;;;5.70;99.90;;;;;;4084494;29;20318;-93
2020/12/05 02:47:40;;;;;;;13.53;2.27;;;5.80;99.90;;;;;;4084347;29;20175;-93
2020/12/05 02:49:41;;;;;;;6.40;2.17;;;5.90;99.90;;;;;;4068785;29;20204;-93
2020/12/05 02:51:41;;;;;;;7.97;2.73;;;6.00;99.90;;;;;;4069141;29;20177;-92
2020/12/05 02:53:45;;;;;;;9.90;2.47;;;5.90;99.90;;;;;;4068610;29;20215;-94
2020/12/05 02:55:46;;;;;;;6.50;2.30;;;5.80;99.90;;;;;;4085047;29;20172;-94
2020/12/05 02:57:47;;;;;;;10.97;2.50;;;5.80;99.90;;;;;;4071938;29;20184;-92
2020/12/05 02:59:47;;;;;;;7.07;2.30;;;5.80;99.90;;;;;;4071945;29;20279;-94
2020/12/05 03:01:48;;;;;;;9.80;2.47;;;5.60;99.90;;;;;;4072147;29;20184;-93
2020/12/05 03:03:50;;;;;;;10.57;2.77;;;5.30;99.90;;;;;;4103985;29;20241;-93
2020/12/05 03:05:51;;;;;;;11.87;2.63;;;5.40;99.90;;;;;;4071972;29;20185;-93
2020/12/05 03:07:51;;;;;;;8.47;2.60;;;5.40;99.90;;;;;;4071696;29;20861;-93
2020/12/05 03:09:52;;;;;;;8.57;2.60;;;5.50;99.90;;;;;;4071991;29;20214;-93
2020/12/05 03:11:53;;;;;;;4.87;2.57;;;5.70;99.90;;;;;;4087170;29;20191;-92
2020/12/05 03:13:54;;;;;;;10.60;2.53;;;5.70;99.90;;;;;;4071390;29;20224;-94
2020/12/05 03:15:54;;;;;;;10.87;3.10;;;5.60;99.90;;;;;;4071731;29;20176;-93
2020/12/05 03:17:55;;;;;;;7.57;2.60;;;5.60;99.90;;;;;;4087154;29;20707;-93
2020/12/05 03:19:56;;;;;;;7.80;2.80;;;5.60;99.90;;;;;;4072222;29;20283;-93
2020/12/05 03:21:57;;;;;;;5.43;2.50;;;5.50;99.90;;;;;;4071637;29;20190;-92
2020/12/05 03:23:57;;;;;;;12.03;2.57;;;5.40;99.90;;;;;;4071580;29;20267;-93
2020/12/05 03:25:58;;;;;;;9.67;2.50;;;5.30;99.90;;;;;;4071421;29;20189;-93
2020/12/05 03:27:59;;;;;;;6.20;2.43;;;5.30;99.90;;;;;;4087533;29;20292;-93
2020/12/05 03:30:00;;;;;;;6.40;2.67;;;5.20;99.90;;;;;;4071324;29;20739;-94
2020/12/05 03:32:06;;;;;;;7.00;2.33;;;5.30;99.90;;;;;;4071387;29;20187;-94
2020/12/05 03:34:07;;;;;;;6.03;2.53;;;5.30;99.90;;;;;;4071550;29;20200;-93
2020/12/05 03:36:08;;;;;;;8.40;2.60;;;5.30;99.90;;;;;;4071521;29;20180;-93
2020/12/05 03:38:08;;;;;;;6.97;2.30;;;5.20;99.90;;;;;;4087395;29;20180;-94
2020/12/05 03:40:09;;;;;;;6.77;2.77;;;5.20;99.90;;;;;;4071418;29;20207;-92
2020/12/05 03:42:11;;;;;;;5.93;2.43;;;5.20;99.90;;;;;;4086705;29;20179;-93
2020/12/05 03:44:11;;;;;;;5.67;2.50;;;5.10;99.90;;;;;;4071228;29;20287;-94
2020/12/05 03:46:12;;;;;;;5.03;2.37;;;5.00;99.90;;;;;;4071199;29;20228;-94
2020/12/05 03:48:13;;;;;;;6.30;2.60;;;5.00;99.90;;;;;;4071079;29;20181;-93
2020/12/05 03:50:14;;;;;;;5.13;2.50;;;5.10;99.90;;;;;;4071042;29;20200;-94
2020/12/05 03:52:20;;;;;;;6.27;2.60;;;5.20;99.90;;;;;;4086807;29;20656;-93
2020/12/05 03:54:20;;;;;;;8.37;2.70;;;5.20;99.90;;;;;;4071734;29;20241;-93
2020/12/05 03:56:21;;;;;;;6.70;2.80;;;5.30;99.90;;;;;;4086894;29;20212;-94
2020/12/05 03:58:22;;;;;;;6.60;2.67;;;5.30;99.90;;;;;;4071094;29;20632;-94
2020/12/05 04:00:23;;;;;;;5.73;2.77;;;5.40;99.90;;;;;;4070960;29;20236;-94
2020/12/05 04:02:24;;;;;;;7.47;2.80;;;5.40;99.90;;;;;;4086710;29;20183;-93
2020/12/05 04:04:24;;;;;;;4.33;2.40;;;5.20;99.90;;;;;;4070740;29;20208;-93
2020/12/05 04:06:25;;;;;;;7.37;2.30;;;5.20;99.90;;;;;;4086651;29;20674;-92
2020/12/05 04:08:29;;;;;;;5.77;2.57;;;5.20;99.90;;;;;;4070399;29;20212;-93
2020/12/05 04:10:30;;;;;;;7.17;3.00;;;5.10;99.90;;;;;;4086491;29;20204;-92
2020/12/05 04:12:31;;;;;;;4.37;2.60;;;5.10;99.90;;;;;;4070777;29;20186;-93
2020/12/05 04:14:31;;;;;;;7.40;3.03;;;5.10;99.90;;;;;;4070479;29;20232;-93
2020/12/05 04:16:32;;;;;;;5.37;2.97;;;4.90;99.90;;;;;;4086306;29;20176;-92
2020/12/05 04:18:33;;;;;;;7.80;3.00;;;5.00;99.90;;;;;;4070816;29;20180;-95
2020/12/05 04:20:34;;;;;;;6.77;3.07;;;4.80;99.90;;;;;;4070965;29;20750;-94
2020/12/05 04:22:35;;;;;;;6.07;3.10;;;4.70;99.90;;;;;;4086437;29;20180;-96
2020/12/05 04:24:36;;;;;;;4.57;3.00;;;4.80;99.90;;;;;;4070451;29;20667;-92
2020/12/05 04:26:36;;;;;;;5.47;3.60;;;4.70;99.90;;;;;;4070892;29;20585;-92
2020/12/05 04:28:37;;;;;;;8.13;3.83;;;4.80;99.90;;;;;;4102133;29;20182;-95
2020/12/05 04:30:38;;;;;;;7.17;3.40;;;4.80;99.90;;;;;;4070429;29;20248;-94
2020/12/05 04:32:38;;;;;;;5.83;3.73;;;4.60;99.90;;;;;;4070610;29;20179;-92
2020/12/05 04:34:39;;;;;;;9.13;3.97;;;4.60;99.90;;;;;;4086142;29;20176;-93
2020/12/05 04:36:40;;;;;;;9.53;4.03;;;4.50;99.90;;;;;;4070608;29;20180;-93
2020/12/05 04:38:41;;;;;;;5.73;3.70;;;4.60;99.90;;;;;;4086450;29;20187;-95
2020/12/05 04:40:41;;;;;;;9.53;4.10;;;4.50;99.90;;;;;;4086302;29;20203;-92
2020/12/05 04:42:46;;;;;;;5.57;3.60;;;4.60;99.90;;;;;;4086223;29;20683;-94
2020/12/05 04:44:47;;;;;;;6.27;4.20;;;4.70;99.90;;;;;;4086070;29;20218;-92
2020/12/05 04:46:49;;;;;;;8.13;4.20;;;4.80;99.90;;;;;;4070364;29;20178;-93
2020/12/05 04:48:51;;;;;;;9.87;3.97;;;4.90;99.90;;;;;;4086680;29;20595;-94
2020/12/05 04:50:54;;;;;;;6.67;4.03;;;4.90;99.90;;;;;;4086003;29;20203;-93
2020/12/05 04:53:09;;;;;;;7.73;3.97;;;4.90;99.90;;;;;;4086300;29;20179;-93
2020/12/05 04:55:09;;;;;;;7.03;3.90;;;4.90;99.90;;;;;;4086208;29;20175;-92
2020/12/05 04:57:16;;;;;;;5.87;3.70;;;4.90;99.90;;;;;;4071459;29;20176;-95
2020/12/05 04:59:17;;;;;;;7.07;4.00;;;5.00;99.90;;;;;;4086044;29;20199;-95
2020/12/05 05:01:19;;;;;;;6.70;3.97;;;5.20;99.90;;;;;;4070691;29;20177;-93
2020/12/05 05:03:22;;;;;;;5.73;3.57;;;5.20;99.90;;;;;;4070112;29;20232;-93
2020/12/05 05:05:26;;;;;;;6.07;3.80;;;5.10;99.90;;;;;;4070220;29;20216;-92
2020/12/05 05:07:31;;;;;;;7.97;3.27;;;5.00;99.90;;;;;;4070731;29;20168;-92
2020/12/05 05:09:31;;;;;;;6.63;3.50;;;4.90;99.90;;;;;;4070100;29;20703;-93
2020/12/05 05:11:35;;;;;;;6.57;3.50;;;4.90;99.90;;;;;;4069725;29;20177;-94
2020/12/05 05:13:48;;;;;;;7.07;3.43;;;4.80;99.90;;;;;;4069981;29;20232;-93
2020/12/05 05:15:50;;;;;;;6.57;3.53;;;4.90;99.90;;;;;;4069903;29;20192;-93
2020/12/05 05:17:51;;;;;;;6.10;3.30;;;4.80;99.90;;;;;;4085437;29;20251;-93
2020/12/05 05:19:51;;;;;;;5.57;3.63;;;4.70;99.90;;;;;;4069276;29;20199;-94
2020/12/05 05:21:52;;;;;;;5.43;3.27;;;4.70;99.90;;;;;;4069901;29;20176;-93
2020/12/05 05:23:53;;;;;;;5.70;3.80;;;4.60;99.90;;;;;;4085283;29;20649;-92
2020/12/05 05:25:54;;;;;;;5.53;3.80;;;4.70;99.90;;;;;;4069946;29;20177;-92
2020/12/05 05:27:58;;;;;;;7.23;3.63;;;4.60;99.90;;;;;;4069656;29;20176;-93
2020/12/05 05:30:12;;;;;;;5.43;3.37;;;4.60;99.90;;;;;;4085744;29;20659;-93
2020/12/05 05:32:27;;;;;;;5.07;3.70;;;4.40;99.90;;;;;;4069989;29;20239;-95
2020/12/05 05:34:28;;;;;;;7.43;3.57;;;4.40;99.90;;;;;;4085145;29;20175;-93
2020/12/05 05:36:30;;;;;;;8.43;3.97;;;4.50;99.90;;;;;;4085441;29;20226;-93
2020/12/05 05:38:31;;;;;;;6.83;3.40;;;4.50;99.90;;;;;;4069660;29;20176;-92
2020/12/05 05:40:32;;;;;;;8.87;4.03;;;4.40;99.90;;;;;;4069526;29;20196;-92
2020/12/05 05:42:36;;;;;;;6.30;3.40;;;4.50;99.90;;;;;;4069916;29;20183;-93
2020/12/05 05:44:37;;;;;;;5.40;2.93;;;4.50;99.90;;;;;;4085337;29;20203;-93
2020/12/05 05:46:43;;;;;;;7.00;3.67;;;4.50;99.90;;;;;;4069828;29;20216;-92
2020/12/05 05:48:51;;;;;;;7.10;3.60;;;4.40;99.90;;;;;;4069493;29;20245;-93
2020/12/05 05:50:51;;;;;;;7.60;4.17;;;4.40;99.90;;;;;;4069390;29;20219;-93
2020/12/05 05:53:00;;;;;;;7.97;3.83;;;4.50;99.90;;;;;;4085188;29;20187;-93
2020/12/05 05:55:01;;;;;;;6.27;3.43;;;4.40;99.90;;;;;;4069675;29;20215;-93
2020/12/05 05:57:03;;;;;;;4.03;3.17;;;4.40;99.90;;;;;;4069170;29;20173;-93
2020/12/05 05:59:05;;;;;;;7.23;3.50;;;4.30;99.90;;;;;;4085042;29;20252;-92
2020/12/05 06:01:08;;;;;;;7.23;3.47;;;4.40;99.90;;;;;;4069243;29;20183;-93
2020/12/05 06:03:24;;;;;;;9.97;3.40;;;4.50;99.90;;;;;;4085225;29;20179;-93
2020/12/05 06:05:29;;;;;;;5.13;3.37;;;4.40;99.90;;;;;;4100761;29;20269;-93
2020/12/05 06:07:32;;;;;;;4.87;2.93;;;4.30;99.90;;;;;;4069203;29;20528;-93
2020/12/05 06:09:42;;;;;;;7.47;3.00;;;4.30;99.90;;;;;;4069237;29;20286;-93
2020/12/05 06:11:47;;;;;;;5.60;2.97;;;4.10;99.90;;;;;;4069554;29;20699;-93
2020/12/05 06:13:48;;;;;;;6.43;3.10;;;4.20;99.90;;;;;;4069108;29;20695;-92
2020/12/05 06:15:49;;;;;;;5.70;3.20;;;4.20;99.90;;;;;;4084918;29;20184;-93
2020/12/05 06:17:57;;;;;;;5.87;2.80;;;4.30;99.90;;;;;;4069254;29;20184;-93
2020/12/05 06:19:58;;;;;;;8.80;2.93;;;4.20;99.90;;;;;;4069234;29;20267;-93
2020/12/05 06:21:58;;;;;;;5.43;2.77;;;4.10;99.90;;;;;;4084800;29;20543;-92
2020/12/05 06:24:05;;;;;;;9.50;3.00;;;4.10;99.90;;;;;;4084628;29;20219;-93
2020/12/05 06:26:17;;;;;;;4.43;3.00;;;4.20;99.90;;;;;;4084889;29;20190;-94
2020/12/05 06:28:19;;;;;;;5.90;3.27;;;4.20;99.90;;;;;;4069316;29;20187;-94
2020/12/05 06:30:20;;;;;;;6.50;3.07;;;4.40;99.90;;;;;;4068776;29;20247;-92
2020/12/05 06:32:41;;;;;;;7.03;3.17;;;4.40;99.90;;;;;;4084766;29;20175;-93
2020/12/05 06:34:42;;;;;;;8.40;3.20;;;4.30;99.90;;;;;;4068607;29;20188;-93
2020/12/05 06:36:43;;;;;;;4.60;2.73;;;4.40;99.90;;;;;;4084588;29;20183;-93
2020/12/05 06:38:44;;;;;;;6.27;3.33;;;4.50;99.90;;;;;;4084881;29;20210;-94
2020/12/05 06:40:44;;;;;;;5.97;2.80;;;4.50;99.90;;;;;;4084476;29;20204;-94
2020/12/05 06:42:48;;;;;;;5.60;2.70;;;4.50;99.90;;;;;;4084426;29;20180;-93
2020/12/05 06:44:49;;;;;;;4.73;3.00;;;4.50;99.90;;;;;;4084670;29;20229;-93
2020/12/05 06:47:00;;;;;;;8.27;2.87;;;4.40;99.90;;;;;;4068680;29;20212;-92
2020/12/05 06:49:01;;;;;;;6.57;2.83;;;4.30;99.90;;;;;;4068820;29;20559;-94
2020/12/05 06:51:02;;;;;;;2.63;2.10;;;4.30;99.90;;;;;;4068965;29;20184;-94
2020/12/05 06:53:23;;;;;;;5.87;2.60;;;4.30;99.90;;;;;;4068872;29;20202;-92
2020/12/05 06:55:32;;;;;;;7.17;3.00;;;4.10;99.90;;;;;;4068547;29;20184;-93
2020/12/05 06:57:34;;;;;;;12.13;3.00;;;4.10;99.90;;;;;;4084734;29;20266;-94
2020/12/05 06:59:36;;;;;;;7.73;2.83;;;4.10;99.90;;;;;;4068617;29;20211;-92
2020/12/05 07:01:36;;;;;;;6.87;2.63;;;4.20;99.90;;;;;;4084364;29;20172;-93
2020/12/05 07:03:37;;;;;;;6.97;2.83;;;4.20;99.90;;;;;;4068728;29;20180;-93
2020/12/05 07:05:44;;;;;;;5.53;2.77;;;4.20;99.90;;;;;;4100239;29;20381;-92
2020/12/05 07:07:47;;;;;;;6.80;3.13;;;4.20;99.90;;;;;;4085851;29;20198;-93
2020/12/05 07:09:49;;;;;;;5.03;2.70;;;4.30;99.90;;;;;;4068602;29;20200;-90
2020/12/05 07:12:19;;;;;;;8.10;2.70;;;4.40;99.90;;;;;;4068441;29;20188;-92
2020/12/05 07:14:26;;;;;;;6.70;2.90;;;4.30;99.90;;;;;;4085566;29;20235;-92
2020/12/05 07:16:28;;;;;;;5.60;3.17;;;4.40;99.90;;;;;;4069802;29;20656;-92
2020/12/05 07:18:29;;;;;;;7.00;2.80;;;4.50;99.90;;;;;;4068523;29;20181;-94
2020/12/05 07:20:29;;;;;;;5.83;2.50;;;4.60;99.90;;;;;;4085227;29;20199;-94
2020/12/05 07:22:30;;;;;;;7.27;2.80;;;4.60;99.90;;;;;;4085011;29;20184;-92
2020/12/05 07:24:31;;;;;;;5.77;2.57;;;4.70;99.90;;;;;;4085070;29;20551;-92
2020/12/05 07:26:34;;;;;;;7.67;2.83;;;4.70;99.90;;;;;;4070747;29;20251;-93
2020/12/05 07:28:35;;;;;;;6.37;2.83;;;4.70;99.90;;;;;;4073735;29;20227;-92
2020/12/05 07:30:36;;;;;;;9.30;2.83;;;4.80;99.90;;;;;;4069588;29;20204;-93
2020/12/05 07:32:39;;;;;;;5.67;2.43;;;4.90;99.90;;;;;;4068981;29;20728;-93
2020/12/05 07:34:41;;;;;;;4.63;2.33;;;4.90;99.90;;;;;;4068374;29;20181;-92
2020/12/05 07:36:42;;;;;;;4.97;2.13;;;5.00;99.90;;;;;;4084573;29;20187;-92
2020/12/05 07:38:46;;;;;;;6.07;2.57;;;4.80;99.90;;;;;;4087253;29;20179;-93
2020/12/05 07:40:46;;;;;;;6.40;2.60;;;4.80;99.90;;;;;;4069465;29;20249;-91
2020/12/05 07:42:50;;;;;;;8.07;2.60;;;4.90;99.90;;;;;;4069699;29;20199;-93
2020/12/05 07:44:51;;;;;;;6.73;2.73;;;4.90;99.90;;;;;;4087889;29;21036;-94
2020/12/05 07:46:51;;;;;;;5.17;2.30;;;5.00;99.90;;;;;;4071602;29;20639;-93
2020/12/05 07:48:52;;;;;;;3.50;2.33;;;5.10;99.90;;;;;;4071489;29;20180;-92
2020/12/05 07:50:53;;;;;;;4.53;2.30;;;5.20;99.90;;;;;;4072133;29;20570;-91
2020/12/05 07:52:53;;;;;;;4.27;2.37;;;5.20;99.90;;;;;;4087063;29;20178;-91
2020/12/05 07:54:56;;;;;;;6.63;2.60;;;5.30;99.90;;;;;;4090486;29;20198;-92
2020/12/05 07:57:06;;;;;;;6.67;3.00;;;5.30;99.90;;;;;;4071601;29;20236;-93
2020/12/05 07:59:07;;;;;;;4.73;2.00;;;5.50;99.90;;;;;;4087700;29;20254;-96
2020/12/05 08:01:10;;;;;;;4.60;2.20;;;5.40;99.90;;;;;;4070883;29;20184;-91
2020/12/05 08:03:35;;;;;;;7.07;2.57;;;5.30;99.90;;;;;;4089817;29;20243;-91
2020/12/05 08:05:57;;;;;;;5.07;2.10;;;5.30;99.90;;;;;;4071102;29;20223;-92
2020/12/05 08:08:02;;;;;;;5.43;2.40;;;5.20;99.90;;;;;;4089178;29;20187;-94
2020/12/05 08:10:08;;;;;;;4.80;2.10;;;5.20;99.90;;;;;;4071329;29;20208;-94
2020/12/05 08:12:13;;;;;;;5.57;2.27;;;5.40;99.90;;;;;;4086953;29;20671;-93
2020/12/05 08:14:14;;;;;;;7.57;2.30;;;5.30;99.90;;;;;;4072145;29;20620;-93
2020/12/05 08:16:17;;;;;;;4.97;2.40;;;5.40;99.90;;;;;;4089778;29;20230;-94
2020/12/05 08:18:20;;;;;;;7.20;2.10;;;5.50;99.90;;;;;;4104821;29;20183;-92
2020/12/05 08:20:21;;;;;;;5.53;2.23;;;5.40;99.90;;;;;;4086478;29;20314;-94
2020/12/05 08:22:22;;;;;;;8.10;2.40;;;5.60;99.90;;;;;;4087682;29;20270;-94
2020/12/05 08:24:23;;;;;;;3.83;2.10;;;5.60;99.90;;;;;;4055153;29;20209;-94
2020/12/05 08:26:27;;;;;;;4.67;2.40;;;5.80;99.90;;;;;;4057082;29;20192;-94
2020/12/05 08:28:31;;;;;;;6.83;2.00;;;5.80;99.90;;;;;;4070561;29;20235;-95
2020/12/05 08:30:32;;;;;;;5.07;2.20;;;5.70;99.90;;;;;;4072641;29;20196;-93
2020/12/05 08:32:33;;;;;;;8.00;2.57;;;5.80;99.90;;;;;;4086077;29;20255;-91
2020/12/05 08:34:34;;;;;;;3.40;2.17;;;5.90;99.90;;;;;;4071377;29;20208;-93
2020/12/05 08:36:41;;;;;;;6.40;2.20;;;5.80;99.90;;;;;;4072467;29;20196;-94
2020/12/05 08:38:43;;;;;;;4.43;2.30;;;5.70;99.90;;;;;;4087727;29;20178;-93
2020/12/05 08:40:44;;;;;;;3.20;2.00;;;5.70;99.90;;;;;;4090603;29;20203;-94
2020/12/05 08:42:48;;;;;;;3.67;2.33;;;5.80;99.90;;;;;;4089443;29;20179;-95
2020/12/05 08:44:49;;;;;;;5.27;2.10;;;5.70;99.90;;;;;;4071851;29;20686;-95
2020/12/05 08:47:03;;;;;;;3.33;2.20;;;5.80;99.90;;;;;;4102892;23;20266;-96
2020/12/05 08:49:18;;;;;;;3.97;1.80;;;5.70;99.90;;;;;;4087694;29;20167;-93
2020/12/05 08:51:27;;;;;;;2.43;1.87;;;5.60;99.90;;;;;;4087401;29;20167;-93
2020/12/05 08:53:28;;;;;;;3.23;1.90;;;5.60;99.90;;;;;;4102169;28;20234;-94
2020/12/05 08:55:30;;;;;;;6.47;2.53;;;5.60;99.90;;;;;;4087373;28;20275;-93
2020/12/05 08:57:36;;;;;;;5.03;2.17;;;5.60;99.90;;;;;;4088038;29;20242;-96
2020/12/05 08:59:37;;;;;;;6.90;2.50;;;5.80;99.90;;;;;;4090707;29;20290;-93
2020/12/05 09:01:43;;;;;;;4.70;2.33;;;5.90;99.90;;;;;;4087468;29;20183;-93
2020/12/05 09:03:43;;;;;;;5.90;3.40;;;5.90;99.90;;;;;;4085732;29;20168;-94
2020/12/05 09:05:46;;;;;;;4.70;1.97;;;6.00;99.90;;;;;;4071545;29;20280;-95
2020/12/05 09:07:55;;;;;;;5.33;2.23;;;6.00;99.90;;;;;;4085732;29;20199;-93
2020/12/05 09:09:55;;;;;;;4.37;2.27;;;6.10;99.90;;;;;;4087024;29;20199;-94
2020/12/05 09:12:06;;;;;;;5.60;2.30;;;6.00;99.90;;;;;;4086626;29;20176;-94
2020/12/05 09:14:06;;;;;;;5.73;2.23;;;6.20;99.90;;;;;;4085670;29;20186;-94
2020/12/05 09:16:07;;;;;;;4.23;2.20;;;6.20;99.90;;;;;;4085762;29;20215;-92
2020/12/05 09:18:08;;;;;;;5.23;2.10;;;6.20;99.90;;;;;;4101243;29;20159;-94
2020/12/05 09:20:13;;;;;;;4.77;2.00;;;6.20;99.90;;;;;;4086169;29;20707;-95
2020/12/05 09:22:31;;;;;;;6.13;2.13;;;6.10;99.90;;;;;;4086921;29;20179;-96
2020/12/05 09:24:42;;;;;;;4.50;2.07;;;6.20;99.90;;;;;;4085305;29;20294;-93
2020/12/05 09:26:59;;;;;;;5.73;2.27;;;6.10;99.90;;;;;;4069697;29;20263;-95
2020/12/05 09:29:00;;;;;;;8.27;2.20;;;6.10;99.90;;;;;;4101368;29;20183;-93
2020/12/05 09:31:07;;;;;;;6.33;2.30;;;6.10;99.90;;;;;;4085307;29;20170;-94
2020/12/05 09:33:18;;;;;;;3.87;1.70;;;6.20;99.90;;;;;;4085142;29;20191;-94
2020/12/05 09:35:21;;;;;;;5.67;2.23;;;6.30;99.90;;;;;;4087370;29;20179;-94
2020/12/05 09:37:22;;;;;;;5.43;2.00;;;6.10;99.90;;;;;;4085859;29;20254;-93
2020/12/05 09:39:23;;;;;;;5.00;1.80;;;6.20;99.90;;;;;;4101715;29;20237;-93
2020/12/05 09:41:23;;;;;;;4.33;1.80;;;6.30;99.90;;;;;;4086642;29;20246;-94
2020/12/05 09:43:24;;;;;;;4.13;1.60;;;6.30;99.90;;;;;;4101176;29;20226;-93
2020/12/05 09:45:26;;;;;;;8.97;1.80;;;6.20;99.90;;;;;;4085002;29;20219;-94
2020/12/05 09:47:27;;;;;;;4.93;1.40;;;6.10;99.90;;;;;;4087886;29;20718;-94
2020/12/05 09:49:28;;;;;;;7.97;1.60;;;6.10;99.90;;;;;;4087478;29;20191;-93
2020/12/05 09:51:29;;;;;;;6.93;1.80;;;6.20;99.90;;;;;;4089111;29;20266;-93
2020/12/05 09:53:30;;;;;;;6.03;2.07;;;6.30;99.90;;;;;;4087660;29;20183;-93
2020/12/05 09:55:30;;;;;;;2.93;1.33;;;6.50;99.90;;;;;;4085723;29;20203;-95
2020/12/05 09:57:33;;;;;;;5.93;1.63;;;6.40;99.90;;;;;;4086333;29;20627;-93
2020/12/05 09:59:34;;;;;;;3.47;1.70;;;6.40;99.90;;;;;;4088590;29;20207;-94
2020/12/05 10:01:34;;;;;;;8.10;1.63;;;6.20;99.90;;;;;;4086679;29;20198;-96
2020/12/05 10:03:35;;;;;;;3.37;1.43;;;6.30;99.90;;;;;;4086105;29;20195;-96
2020/12/05 10:05:36;;;;;;;6.47;1.50;;;6.20;99.90;;;;;;4085186;29;20215;-94
2020/12/05 10:07:38;;;;;;;5.13;1.43;;;6.20;99.90;;;;;;4086331;29;20215;-95
2020/12/05 10:09:38;;;;;;;5.63;1.50;;;6.20;99.90;;;;;;4086912;29;20365;-93
2020/12/05 10:11:39;;;;;;;4.60;1.40;;;6.20;99.90;;;;;;4101132;29;20171;-93
2020/12/05 10:13:40;;;;;;;5.97;1.67;;;6.00;99.90;;;;;;4103163;29;20185;-93
2020/12/05 10:15:41;;;;;;;6.40;1.40;;;6.00;99.90;;;;;;4085783;29;20179;-92
2020/12/05 10:17:43;;;;;;;4.17;1.27;;;6.00;99.90;;;;;;4085625;29;20290;-94
2020/12/05 10:19:43;;;;;;;2.63;1.33;;;6.10;99.90;;;;;;4100565;29;20191;-94
2020/12/05 10:21:48;;;;;;;4.90;1.70;;;6.10;99.90;;;;;;4085359;29;20180;-94
2020/12/05 10:23:51;;;;;;;4.83;1.33;;;6.20;99.90;;;;;;4085155;29;20223;-96
2020/12/05 10:25:52;;;;;;;3.63;1.17;;;6.30;99.90;;;;;;4084512;29;20229;-94
2020/12/05 10:27:53;;;;;;;4.07;1.20;;;6.30;99.90;;;;;;4084565;29;20208;-93
2020/12/05 10:29:55;;;;;;;4.07;1.40;;;6.30;99.90;;;;;;4085283;29;20187;-93
2020/12/05 10:31:56;;;;;;;5.67;1.13;;;6.50;99.90;;;;;;4086248;29;20192;-93
2020/12/05 10:33:58;;;;;;;4.23;1.00;;;6.70;99.90;;;;;;4101773;29;20215;-94
2020/12/05 10:35:59;;;;;;;2.60;1.17;;;6.70;99.90;;;;;;4085229;29;20280;-92
2020/12/05 10:37:59;;;;;;;2.83;1.20;;;6.60;99.90;;;;;;4085526;29;20179;-95
2020/12/05 10:40:00;;;;;;;2.40;1.17;;;6.50;99.90;;;;;;4078202;29;20719;-96
2020/12/05 10:42:01;;;;;;;2.53;1.00;;;6.50;99.90;;;;;;4075432;29;20176;-95
2020/12/05 10:44:02;;;;;;;4.27;1.10;;;6.30;99.90;;;;;;4073419;29;20172;-96
2020/12/05 10:46:03;;;;;;;5.60;1.30;;;6.20;99.90;;;;;;4096689;29;20226;-96